Dades meteomassalio
Diari Summary for Febrer 14, 2017 Units:  Metric    English   Both
« Previous Day
Next Day »
Diari Semanal Mensual Anual Personalitzat
  Maxima: Minima: Mijana:
Temperatura: 15.7 °C 3.6 °C 9.4 °C
Rosada: 8.7 °C 2.6 °C 6.1 °C
Humitat: 94 % 57 % 81 %
Velocitat del vent: 14.8 km/h 0.0 km/h 2.2 km/h
Racha vent: 14.8 km/h - -
Vent:- - East
Pressio: 1029.7 hPa 1016.1 hPa -
Pluja: 0.5 mm    
Historical Graphs
 
 
Tabular Data for Febrer 14, 2017
Time Temperature Dew Point Pressure Wind Wind Speed Wind Gust Humidity Rainfall Rate (Hourly) solar Conditions
00:04 9.1 °C 8.2 °C 1016.1 hPa West 5.6 km/h 5.6 km/h 94 % 0.0 mm 0.0 W/m2 RA
00:09 9.3 °C 8.2 °C 1016.5 hPa WSW 8.0 km/h 8.0 km/h 93 % 0.0 mm 0.0 W/m2 CLR
00:14 9.3 °C 8.3 °C 1016.5 hPa WSW 5.6 km/h 5.6 km/h 93 % 0.0 mm 0.0 W/m2 CLR
00:19 9.4 °C 8.2 °C 1016.5 hPa SW 7.4 km/h 7.4 km/h 92 % 0.0 mm 0.0 W/m2 CLR
00:24 9.3 °C 8.1 °C 1016.5 hPa Calm     92 % 0.0 mm 0.0 W/m2 CLR
00:29 9.1 °C 7.7 °C 1016.5 hPa Calm     91 % 0.0 mm 0.0 W/m2 CLR
00:34 8.8 °C 7.4 °C 1016.5 hPa Calm     91 % 0.0 mm 0.0 W/m2 CLR
00:39 8.7 °C 7.3 °C 1016.5 hPa Calm     91 % 0.0 mm 0.0 W/m2 CLR
00:44 8.6 °C 7.3 °C 1016.8 hPa Calm     92 % 0.0 mm 0.0 W/m2 CLR
00:49 8.5 °C 7.3 °C 1016.8 hPa Calm     92 % 0.0 mm 0.0 W/m2 CLR
00:54 8.4 °C 7.2 °C 1016.8 hPa Calm     92 % 0.0 mm 0.0 W/m2 CLR
00:59 8.4 °C 7.2 °C 1016.8 hPa Calm     92 % 0.0 mm 0.0 W/m2 CLR
01:04 8.4 °C 7.2 °C 1016.8 hPa Calm     92 % 0.0 mm 0.0 W/m2 CLR
01:09 8.3 °C 6.9 °C 1016.8 hPa Calm     91 % 0.0 mm 0.0 W/m2 CLR
01:14 8.1 °C 6.8 °C 1016.8 hPa Calm     92 % 0.0 mm 0.0 W/m2 CLR
01:19 8.1 °C 6.8 °C 1017.2 hPa Calm     92 % 0.0 mm 0.0 W/m2 CLR
01:24 8.1 °C 6.9 °C 1017.2 hPa Calm     92 % 0.0 mm 0.0 W/m2 CLR
01:29 8.0 °C 6.6 °C 1017.2 hPa Calm     91 % 0.0 mm 0.0 W/m2 CLR
01:34 7.8 °C 6.4 °C 1017.2 hPa Calm     91 % 0.0 mm 0.0 W/m2 CLR
01:39 7.6 °C 6.2 °C 1017.2 hPa Calm     91 % 0.0 mm 0.0 W/m2 CLR
01:44 7.4 °C 6.2 °C 1017.2 hPa SW 7.4 km/h 7.4 km/h 92 % 0.0 mm 0.0 W/m2 CLR
01:49 7.3 °C 6.1 °C 1017.2 hPa Calm   2.1 km/h 92 % 0.0 mm 0.0 W/m2 CLR
01:54 7.3 °C 6.1 °C 1017.2 hPa SW 7.4 km/h 7.4 km/h 92 % 0.0 mm 0.0 W/m2 CLR
01:59 7.3 °C 6.1 °C 1017.2 hPa Calm     92 % 0.0 mm 0.0 W/m2 CLR
02:04 7.4 °C 6.2 °C 1017.5 hPa Calm     92 % 0.0 mm 0.0 W/m2 CLR
02:09 7.4 °C 6.1 °C 1017.5 hPa Calm     91 % 0.0 mm 0.0 W/m2 CLR
02:14 7.4 °C 6.1 °C 1017.5 hPa Calm     91 % 0.0 mm 0.0 W/m2 CLR
02:19 7.4 °C 6.0 °C 1017.8 hPa Calm     91 % 0.0 mm 0.0 W/m2 CLR
02:24 7.3 °C 5.9 °C 1017.8 hPa Calm     91 % 0.0 mm 0.0 W/m2 CLR
02:29 7.3 °C 5.9 °C 1017.8 hPa Calm     91 % 0.0 mm 0.0 W/m2 CLR
02:34 7.2 °C 5.8 °C 1017.8 hPa Calm     91 % 0.0 mm 0.0 W/m2 CLR
02:39 7.1 °C 5.7 °C 1017.8 hPa Calm     91 % 0.0 mm 0.0 W/m2 CLR
02:44 7.0 °C 5.6 °C 1017.8 hPa Calm     91 % 0.0 mm 0.0 W/m2 CLR
02:49 6.9 °C 5.5 °C 1017.8 hPa Calm     91 % 0.0 mm 0.0 W/m2 CLR
02:54 6.8 °C 5.4 °C 1018.2 hPa Calm     91 % 0.0 mm 0.0 W/m2 CLR
02:59 6.7 °C 5.3 °C 1018.2 hPa Calm     91 % 0.0 mm 0.0 W/m2 CLR
03:04 6.7 °C 5.5 °C 1018.2 hPa Calm     92 % 0.0 mm 0.0 W/m2 CLR
03:09 6.7 °C 5.3 °C 1018.2 hPa Calm     91 % 0.0 mm 0.0 W/m2 CLR
03:14 6.5 °C 5.1 °C 1018.2 hPa Calm     91 % 0.0 mm 0.0 W/m2 CLR
03:15 6.4 °C 5.1 °C 1018.2 hPa Calm     91 % 0.0 mm 0.0 W/m2 CLR
03:20 6.4 °C 5.2 °C 1018.5 hPa Calm     92 % 0.0 mm 0.0 W/m2 CLR
03:25 6.3 °C 5.1 °C 1018.5 hPa Calm     92 % 0.0 mm 0.0 W/m2 CLR
03:30 6.4 °C 5.2 °C 1018.5 hPa Calm     92 % 0.0 mm 0.0 W/m2 CLR
03:35 6.4 °C 5.2 °C 1018.5 hPa Calm     92 % 0.0 mm 0.0 W/m2 CLR
03:40 6.3 °C 5.1 °C 1018.5 hPa Calm     92 % 0.0 mm 0.0 W/m2 CLR
03:45 6.1 °C 4.9 °C 1018.5 hPa Calm     92 % 0.0 mm 0.0 W/m2 CLR
03:50 6.1 °C 4.9 °C 1018.5 hPa Calm     92 % 0.0 mm 0.0 W/m2 CLR
03:55 6.1 °C 4.8 °C 1018.5 hPa Calm     92 % 0.0 mm 0.0 W/m2 CLR
04:00 5.9 °C 4.7 °C 1018.8 hPa Calm     92 % 0.0 mm 0.0 W/m2 CLR
04:05 5.8 °C 4.6 °C 1018.8 hPa Calm     92 % 0.0 mm 0.0 W/m2 CLR
04:10 5.7 °C 4.4 °C 1018.8 hPa Calm     92 % 0.0 mm 0.0 W/m2 CLR
04:15 5.7 °C 4.4 °C 1018.8 hPa Calm     92 % 0.0 mm 0.0 W/m2 CLR
04:20 5.6 °C 4.4 °C 1018.8 hPa Calm     92 % 0.0 mm 0.0 W/m2 CLR
04:25 5.5 °C 4.3 °C 1019.2 hPa Calm     92 % 0.0 mm 0.0 W/m2 CLR
04:30 5.4 °C 4.4 °C 1019.2 hPa Calm     93 % 0.0 mm 0.0 W/m2 CLR
04:35 5.4 °C 4.4 °C 1019.2 hPa Calm     93 % 0.0 mm 0.0 W/m2 CLR
04:40 5.4 °C 4.3 °C 1019.2 hPa Calm     93 % 0.0 mm 0.0 W/m2 CLR
04:45 5.3 °C 4.1 °C 1019.2 hPa Calm     92 % 0.0 mm 0.0 W/m2 CLR
04:50 5.2 °C 4.1 °C 1019.5 hPa Calm     93 % 0.5 mm 0.0 W/m2 RA
04:55 5.1 °C 4.1 °C 1019.5 hPa Calm     93 % 0.5 mm 0.0 W/m2 CLR
05:00 5.0 °C 3.9 °C 1019.5 hPa WSW 3.7 km/h 3.7 km/h 93 % 0.5 mm 0.0 W/m2 CLR
05:05 5.4 °C 4.3 °C 1019.5 hPa WSW 7.4 km/h 7.4 km/h 93 % 0.5 mm 0.0 W/m2 CLR
05:10 5.8 °C 4.9 °C 1019.9 hPa Calm     94 % 0.5 mm 0.0 W/m2 CLR
05:15 5.7 °C 4.7 °C 1019.9 hPa Calm     93 % 0.5 mm 0.0 W/m2 CLR
05:20 5.4 °C 4.2 °C 1019.9 hPa Calm     92 % 0.5 mm 0.0 W/m2 CLR
05:25 5.1 °C 3.9 °C 1020.2 hPa Calm     92 % 0.5 mm 0.0 W/m2 CLR
05:30 4.9 °C 3.7 °C 1020.2 hPa Calm     92 % 0.5 mm 0.0 W/m2 CLR
05:35 4.8 °C 3.6 °C 1020.2 hPa Calm     92 % 0.5 mm 0.0 W/m2 CLR
05:40 4.7 °C 3.7 °C 1020.5 hPa Calm     93 % 0.5 mm 0.0 W/m2 CLR
05:45 4.6 °C 3.4 °C 1020.5 hPa Calm     92 % 0.5 mm 0.0 W/m2 CLR
05:50 4.6 °C 3.5 °C 1020.5 hPa Calm     93 % 0.0 mm 0.0 W/m2 CLR
05:55 4.5 °C 3.4 °C 1020.5 hPa Calm     93 % 0.0 mm 0.0 W/m2 CLR
06:00 4.4 °C 3.4 °C 1020.5 hPa Calm     93 % 0.0 mm 0.0 W/m2 CLR
06:05 4.4 °C 3.4 °C 1020.9 hPa Calm     93 % 0.0 mm 0.0 W/m2 CLR
06:10 4.5 °C 3.4 °C 1020.9 hPa Calm     93 % 0.0 mm 0.0 W/m2 CLR
06:15 4.2 °C 3.1 °C 1020.9 hPa Calm     92 % 0.0 mm 0.0 W/m2 CLR
06:20 4.1 °C 3.1 °C 1020.9 hPa Calm     93 % 0.0 mm 0.0 W/m2 CLR
06:25 4.2 °C 3.1 °C 1021.2 hPa Calm     93 % 0.0 mm 0.0 W/m2 CLR
06:30 4.2 °C 3.1 °C 1021.2 hPa Calm     93 % 0.0 mm 0.0 W/m2 CLR
06:35 4.3 °C 3.2 °C 1021.2 hPa Calm     93 % 0.0 mm 0.0 W/m2 CLR
06:40 4.3 °C 3.3 °C 1021.2 hPa Calm     93 % 0.0 mm 0.0 W/m2 CLR
06:45 4.3 °C 3.2 °C 1021.2 hPa Calm     93 % 0.0 mm 0.0 W/m2 CLR
06:50 4.0 °C 2.9 °C 1021.6 hPa Calm     93 % 0.0 mm 0.0 W/m2 CLR
06:55 3.8 °C 2.8 °C 1021.6 hPa Calm     93 % 0.0 mm 0.0 W/m2 CLR
07:00 3.9 °C 2.9 °C 1021.6 hPa Calm     93 % 0.0 mm 0.0 W/m2 CLR
07:05 4.1 °C 3.0 °C 1021.6 hPa Calm     93 % 0.0 mm 0.0 W/m2 CLR
07:10 4.1 °C 3.0 °C 1021.6 hPa Calm     93 % 0.0 mm 0.0 W/m2 CLR
07:15 4.0 °C 2.9 °C 1021.9 hPa Calm     93 % 0.0 mm 0.0 W/m2 CLR
07:20 4.0 °C 2.9 °C 1021.9 hPa Calm     93 % 0.0 mm 0.0 W/m2 CLR
07:25 4.0 °C 2.9 °C 1021.9 hPa Calm     93 % 0.0 mm 0.0 W/m2 CLR
07:30 4.1 °C 3.0 °C 1021.9 hPa Calm     93 % 0.0 mm 0.0 W/m2 CLR
07:35 4.1 °C 3.1 °C 1022.2 hPa Calm     93 % 0.0 mm 0.0 W/m2 CLR
07:40 4.0 °C 2.9 °C 1022.2 hPa Calm     93 % 0.0 mm 0.0 W/m2 CLR
07:45 3.8 °C 2.8 °C 1022.2 hPa Calm     93 % 0.0 mm 0.0 W/m2 OVC
07:50 3.7 °C 2.7 °C 1022.2 hPa Calm     93 % 0.0 mm 0.0 W/m2 OVC
07:55 3.7 °C 2.7 °C 1022.6 hPa Calm     93 % 0.0 mm 0.0 W/m2 OVC
08:00 3.6 °C 2.6 °C 1022.6 hPa Calm     93 % 0.0 mm 7.0 W/m2 BKN
08:05 3.6 °C 2.6 °C 1022.6 hPa Calm     93 % 0.0 mm 9.0 W/m2 BKN
08:10 3.6 °C 2.6 °C 1022.6 hPa Calm     93 % 0.0 mm 11.0 W/m2 BKN
08:15 3.7 °C 2.7 °C 1022.9 hPa Calm     93 % 0.0 mm 12.0 W/m2 BKN
08:20 3.9 °C 2.9 °C 1022.9 hPa Calm     93 % 0.0 mm 19.0 W/m2 BKN
08:25 4.2 °C 3.3 °C 1022.9 hPa Calm     94 % 0.0 mm 26.0 W/m2 BKN
08:30 3.9 °C 2.8 °C 1022.9 hPa Calm     93 % 0.0 mm 37.0 W/m2 BKN
08:35 3.9 °C 2.9 °C 1023.2 hPa Calm     93 % 0.0 mm 42.0 W/m2 BKN
08:40 4.2 °C 3.1 °C 1023.2 hPa Calm     93 % 0.0 mm 62.0 W/m2 SCT
08:45 4.4 °C 3.5 °C 1023.2 hPa Calm     94 % 0.0 mm 74.0 W/m2 FEW
08:50 4.7 °C 3.8 °C 1023.2 hPa Calm     94 % 0.0 mm 84.0 W/m2 FEW
08:55 4.9 °C 4.1 °C 1023.6 hPa Calm     94 % 0.0 mm 100.0 W/m2 CLR
09:00 5.1 °C 4.1 °C 1023.6 hPa Calm     93 % 0.0 mm 116.0 W/m2 CLR
09:05 5.1 °C 4.1 °C 1023.6 hPa Calm     93 % 0.0 mm 134.0 W/m2 CLR
09:10 5.3 °C 4.2 °C 1023.6 hPa Calm     93 % 0.0 mm 148.0 W/m2 CLR
09:15 5.7 °C 4.8 °C 1023.6 hPa Calm     94 % 0.0 mm 128.0 W/m2 CLR
09:20 5.9 °C 4.9 °C 1023.6 hPa Calm     93 % 0.0 mm 116.0 W/m2 CLR
09:25 6.3 °C 5.3 °C 1023.6 hPa Calm     93 % 0.0 mm 171.0 W/m2 CLR
09:30 6.6 °C 5.6 °C 1023.6 hPa Calm     93 % 0.0 mm 190.0 W/m2 CLR
09:35 7.0 °C 5.9 °C 1023.6 hPa Calm     93 % 0.0 mm 227.0 W/m2 CLR
09:40 7.1 °C 5.9 °C 1023.6 hPa Calm     92 % 0.0 mm 241.0 W/m2 CLR
09:45 7.3 °C 6.1 °C 1023.6 hPa Calm     92 % 0.0 mm 255.0 W/m2 CLR
09:51 7.8 °C 6.6 °C 1023.6 hPa Calm     92 % 0.0 mm 271.0 W/m2 CLR
09:56 8.4 °C 7.2 °C 1023.6 hPa Calm     92 % 0.0 mm 283.0 W/m2 CLR
10:01 8.8 °C 7.4 °C 1023.6 hPa Calm     91 % 0.0 mm 297.0 W/m2 CLR
10:06 9.2 °C 7.7 °C 1023.6 hPa Calm     90 % 0.0 mm 308.0 W/m2 CLR
10:11 9.5 °C 7.8 °C 1023.6 hPa Calm     89 % 0.0 mm 322.0 W/m2 CLR
10:16 9.7 °C 7.6 °C 1023.6 hPa Calm     87 % 0.0 mm 332.0 W/m2 CLR
10:21 9.8 °C 7.7 °C 1023.9 hPa Calm     87 % 0.0 mm 345.0 W/m2 CLR
10:26 10.0 °C 7.8 °C 1023.6 hPa Calm     86 % 0.0 mm 357.0 W/m2 CLR
10:31 10.2 °C 7.8 °C 1023.9 hPa Calm     85 % 0.0 mm 369.0 W/m2 CLR
10:36 10.5 °C 7.9 °C 1023.6 hPa Calm     84 % 0.0 mm 383.0 W/m2 CLR
10:41 10.8 °C 8.2 °C 1023.9 hPa Calm     84 % 0.0 mm 399.0 W/m2 CLR
10:46 10.9 °C 8.0 °C 1023.9 hPa Calm     82 % 0.0 mm 413.0 W/m2 CLR
10:51 11.2 °C 8.2 °C 1023.9 hPa Calm     82 % 0.0 mm 424.0 W/m2 CLR
10:56 11.6 °C 8.4 °C 1023.9 hPa ESE 5.6 km/h 5.6 km/h 81 % 0.0 mm 434.0 W/m2 CLR
11:01 11.8 °C 8.3 °C 1023.9 hPa East 3.7 km/h 3.7 km/h 79 % 0.0 mm 445.0 W/m2 CLR
11:06 11.9 °C 8.2 °C 1023.9 hPa Calm     78 % 0.0 mm 454.0 W/m2 CLR
11:11 12.2 °C 8.3 °C 1023.9 hPa Calm     77 % 0.0 mm 464.0 W/m2 CLR
11:16 12.6 °C 8.4 °C 1024.3 hPa Calm     76 % 0.0 mm 473.0 W/m2 CLR
11:21 12.8 °C 8.3 °C 1024.3 hPa Calm     74 % 0.0 mm 483.0 W/m2 CLR
11:26 13.1 °C 7.8 °C 1024.3 hPa Calm     70 % 0.0 mm 492.0 W/m2 CLR
11:31 13.3 °C 7.8 °C 1024.3 hPa Calm     69 % 0.0 mm 499.0 W/m2 CLR
11:36 13.7 °C 8.7 °C 1024.3 hPa Calm     72 % 0.0 mm 510.0 W/m2 CLR
11:41 13.8 °C 7.1 °C 1024.3 hPa Calm     64 % 0.0 mm 519.0 W/m2 CLR
11:46 13.9 °C 6.7 °C 1024.3 hPa Calm     62 % 0.0 mm 526.0 W/m2 CLR
11:51 13.8 °C 6.6 °C 1024.3 hPa NNE 5.6 km/h 5.6 km/h 62 % 0.0 mm 531.0 W/m2 CLR
11:56 13.8 °C 7.1 °C 1024.3 hPa North 13.0 km/h 13.0 km/h 64 % 0.0 mm 536.0 W/m2 CLR
12:01 13.8 °C 6.2 °C 1024.3 hPa North 5.6 km/h 5.6 km/h 60 % 0.0 mm 545.0 W/m2 CLR
12:06 13.8 °C 6.6 °C 1024.3 hPa NNE 5.6 km/h 5.6 km/h 62 % 0.0 mm 538.0 W/m2 CLR
12:11 13.8 °C 6.4 °C 1024.3 hPa North 5.6 km/h 5.6 km/h 61 % 0.0 mm 555.0 W/m2 CLR
12:16 13.9 °C 6.2 °C 1024.3 hPa Calm     60 % 0.0 mm 561.0 W/m2 CLR
12:21 14.2 °C 7.2 °C 1024.3 hPa NNE 8.0 km/h 8.0 km/h 63 % 0.0 mm 564.0 W/m2 CLR
12:26 14.1 °C 6.2 °C 1024.3 hPa North 5.6 km/h 5.6 km/h 59 % 0.0 mm 570.0 W/m2 CLR
12:31 14.1 °C 6.7 °C 1024.3 hPa North 5.6 km/h 5.6 km/h 61 % 0.0 mm 573.0 W/m2 CLR
12:36 14.1 °C 6.7 °C 1024.3 hPa Calm     61 % 0.0 mm 577.0 W/m2 CLR
12:41 14.3 °C 7.8 °C 1024.3 hPa ENE 5.6 km/h 5.6 km/h 65 % 0.0 mm 580.0 W/m2 CLR
12:46 14.4 °C 7.5 °C 1024.3 hPa NE 5.6 km/h 5.6 km/h 63 % 0.0 mm 582.0 W/m2 CLR
12:51 14.4 °C 7.2 °C 1024.6 hPa NE 5.6 km/h 5.6 km/h 62 % 0.0 mm 584.0 W/m2 CLR
12:56 14.3 °C 6.9 °C 1024.6 hPa ENE 7.4 km/h 7.4 km/h 61 % 0.0 mm 585.0 W/m2 CLR
13:01 14.2 °C 7.3 °C 1024.3 hPa East 7.4 km/h 7.4 km/h 63 % 0.0 mm 591.0 W/m2 CLR
13:06 14.3 °C 7.2 °C 1024.3 hPa ENE 8.0 km/h 8.0 km/h 62 % 0.0 mm 589.0 W/m2 CLR
13:11 14.4 °C 7.5 °C 1024.3 hPa ENE 11.3 km/h 11.3 km/h 63 % 0.0 mm 591.0 W/m2 CLR
13:16 14.5 °C 7.1 °C 1024.3 hPa East 3.7 km/h 3.7 km/h 61 % 0.0 mm 591.0 W/m2 CLR
13:21 14.7 °C 7.7 °C 1024.3 hPa East 7.4 km/h 7.4 km/h 63 % 0.0 mm 591.0 W/m2 CLR
13:26 14.6 °C 7.4 °C 1024.3 hPa Calm     62 % 0.0 mm 591.0 W/m2 CLR
13:31 14.6 °C 6.9 °C 1024.3 hPa East 11.1 km/h 11.1 km/h 60 % 0.0 mm 589.0 W/m2 CLR
13:36 14.6 °C 7.3 °C 1024.3 hPa NE 13.0 km/h 13.0 km/h 62 % 0.0 mm 589.0 W/m2 CLR
13:41 14.6 °C 7.7 °C 1024.3 hPa ENE 8.0 km/h 8.0 km/h 63 % 0.0 mm 587.0 W/m2 CLR
13:46 14.7 °C 7.5 °C 1024.3 hPa ENE 9.3 km/h 9.3 km/h 62 % 0.0 mm 585.0 W/m2 CLR
13:51 14.8 °C 6.8 °C 1024.3 hPa ENE 13.0 km/h 13.0 km/h 59 % 0.0 mm 584.0 W/m2 CLR
13:56 14.8 °C 6.8 °C 1024.3 hPa ENE 13.0 km/h 13.0 km/h 59 % 0.0 mm 582.0 W/m2 CLR
14:01 14.8 °C 7.4 °C 1024.3 hPa ENE 8.0 km/h 8.0 km/h 61 % 0.0 mm 578.0 W/m2 CLR
14:06 14.9 °C 7.2 °C 1024.3 hPa ENE 8.0 km/h 8.0 km/h 60 % 0.0 mm 578.0 W/m2 CLR
14:11 14.9 °C 6.4 °C 1024.3 hPa East 7.4 km/h 7.4 km/h 57 % 0.0 mm 577.0 W/m2 CLR
14:16 14.9 °C 6.7 °C 1024.3 hPa NE 9.7 km/h 9.7 km/h 58 % 0.0 mm 571.0 W/m2 CLR
14:21 14.9 °C 6.9 °C 1024.3 hPa ENE 9.3 km/h 9.3 km/h 59 % 0.0 mm 545.0 W/m2 CLR
14:26 15.0 °C 7.3 °C 1024.3 hPa East 9.3 km/h 9.3 km/h 60 % 0.0 mm 552.0 W/m2 CLR
14:31 15.1 °C 7.1 °C 1024.3 hPa NE 11.1 km/h 11.1 km/h 59 % 0.0 mm 497.0 W/m2 CLR
14:36 15.0 °C 7.1 °C 1024.3 hPa NE 9.3 km/h 9.3 km/h 59 % 0.0 mm 536.0 W/m2 CLR
14:41 15.0 °C 7.3 °C 1024.3 hPa NNE 7.4 km/h 7.4 km/h 60 % 0.0 mm 540.0 W/m2 CLR
14:46 15.1 °C 7.8 °C 1024.3 hPa NE 9.3 km/h 9.3 km/h 62 % 0.0 mm 443.0 W/m2 CLR
14:51 15.0 °C 7.3 °C 1024.3 hPa ENE 5.6 km/h 5.6 km/h 60 % 0.0 mm 446.0 W/m2 CLR
14:56 15.2 °C 7.4 °C 1024.3 hPa ENE 9.3 km/h 9.3 km/h 60 % 0.0 mm 485.0 W/m2 CLR
15:01 15.3 °C 7.6 °C 1024.3 hPa NNE 5.6 km/h 5.6 km/h 60 % 0.0 mm 533.0 W/m2 CLR
15:06 15.3 °C 7.6 °C 1024.3 hPa NNE 11.1 km/h 11.1 km/h 60 % 0.0 mm 515.0 W/m2 CLR
15:11 15.2 °C 7.5 °C 1024.3 hPa NE 7.4 km/h 7.4 km/h 60 % 0.0 mm 497.0 W/m2 CLR
15:16 15.3 °C 7.6 °C 1024.3 hPa NE 11.1 km/h 11.1 km/h 60 % 0.0 mm 485.0 W/m2 CLR
15:21 15.3 °C 7.8 °C 1024.3 hPa NNE 9.3 km/h 9.3 km/h 61 % 0.0 mm 462.0 W/m2 CLR
15:26 15.3 °C 7.3 °C 1024.3 hPa NE 9.3 km/h 9.3 km/h 59 % 0.0 mm 461.0 W/m2 CLR
15:31 15.3 °C 7.3 °C 1024.3 hPa NE 7.4 km/h 7.4 km/h 59 % 0.0 mm 450.0 W/m2 CLR
15:36 15.4 °C 7.4 °C 1024.3 hPa NE 7.4 km/h 7.4 km/h 59 % 0.0 mm 438.0 W/m2 CLR
15:41 15.4 °C 7.4 °C 1024.3 hPa NE 9.3 km/h 9.3 km/h 59 % 0.0 mm 429.0 W/m2 CLR
15:46 15.5 °C 7.3 °C 1024.3 hPa NE 3.2 km/h 3.2 km/h 58 % 0.0 mm 413.0 W/m2 CLR
15:51 15.6 °C 7.4 °C 1024.3 hPa ESE 5.6 km/h 5.6 km/h 58 % 0.0 mm 403.0 W/m2 CLR
15:56 15.7 °C 7.2 °C 1024.6 hPa ENE 14.8 km/h 14.8 km/h 57 % 0.0 mm 392.0 W/m2 CLR
16:01 15.5 °C 7.3 °C 1024.6 hPa ENE 14.8 km/h 14.8 km/h 58 % 0.0 mm 381.0 W/m2 CLR
16:06 15.4 °C 7.7 °C 1024.6 hPa NNE 9.3 km/h 9.3 km/h 60 % 0.0 mm 367.0 W/m2 CLR
16:11 15.3 °C 7.6 °C 1024.6 hPa ENE 11.3 km/h 11.3 km/h 60 % 0.0 mm 343.0 W/m2 CLR
16:16 15.4 °C 7.4 °C 1024.6 hPa NE 8.0 km/h 8.0 km/h 59 % 0.0 mm 334.0 W/m2 CLR
16:21 15.5 °C 7.5 °C 1024.6 hPa Calm     59 % 0.0 mm 334.0 W/m2 CLR
16:26 15.6 °C 7.1 °C 1024.6 hPa ENE 11.1 km/h 11.1 km/h 57 % 0.0 mm 323.0 W/m2 CLR
16:31 15.7 °C 7.7 °C 1024.6 hPa East 3.7 km/h 3.7 km/h 59 % 0.0 mm 311.0 W/m2 CLR
16:36 15.7 °C 7.7 °C 1024.6 hPa ENE 13.0 km/h 13.0 km/h 59 % 0.0 mm 269.0 W/m2 CLR
16:41 15.6 °C 7.6 °C 1024.6 hPa NE 7.4 km/h 7.4 km/h 59 % 0.0 mm 77.0 W/m2 CLR
16:46 15.3 °C 7.3 °C 1024.6 hPa ENE 9.3 km/h 9.3 km/h 59 % 0.0 mm 120.0 W/m2 CLR
16:51 15.1 °C 7.4 °C 1024.9 hPa East 7.4 km/h 7.4 km/h 60 % 0.0 mm 111.0 W/m2 CLR
16:56 15.1 °C 7.3 °C 1024.9 hPa East 7.4 km/h 7.4 km/h 60 % 0.0 mm 178.0 W/m2 CLR
17:01 15.1 °C 7.6 °C 1024.9 hPa NE 5.6 km/h 5.6 km/h 61 % 0.0 mm 171.0 W/m2 CLR
17:06 15.1 °C 7.7 °C 1024.9 hPa ENE 7.4 km/h 7.4 km/h 61 % 0.0 mm 204.0 W/m2 CLR
17:11 15.2 °C 7.7 °C 1024.9 hPa Calm     61 % 0.0 mm 162.0 W/m2 CLR
17:16 15.2 °C 7.5 °C 1024.9 hPa ENE 5.6 km/h 5.6 km/h 60 % 0.0 mm 139.0 W/m2 CLR
17:21 15.2 °C 7.5 °C 1025.3 hPa East 5.6 km/h 5.6 km/h 60 % 0.0 mm 104.0 W/m2 CLR
17:26 15.1 °C 7.4 °C 1024.9 hPa ENE 11.1 km/h 11.1 km/h 60 % 0.0 mm 81.0 W/m2 CLR
17:31 15.1 °C 7.6 °C 1025.3 hPa East 5.6 km/h 5.6 km/h 61 % 0.0 mm 60.0 W/m2 FEW
17:36 15.0 °C 7.8 °C 1025.3 hPa ESE 9.3 km/h 9.3 km/h 62 % 0.0 mm 53.0 W/m2 SCT
17:41 14.9 °C 7.9 °C 1025.3 hPa East 11.1 km/h 11.1 km/h 63 % 0.0 mm 46.0 W/m2 SCT
17:46 14.8 °C 7.8 °C 1025.3 hPa ENE 7.4 km/h 7.4 km/h 63 % 0.0 mm 39.0 W/m2 BKN
17:51 14.7 °C 8.0 °C 1025.3 hPa East 5.6 km/h 5.6 km/h 64 % 0.0 mm 35.0 W/m2 BKN
17:56 14.6 °C 8.1 °C 1025.3 hPa Calm   0.8 km/h 65 % 0.0 mm 28.0 W/m2 BKN
18:01 14.4 °C 7.9 °C 1025.6 hPa Calm     65 % 0.0 mm 25.0 W/m2 BKN
18:06 14.3 °C 8.1 °C 1025.6 hPa Calm     66 % 0.0 mm 21.0 W/m2 BKN
18:11 14.2 °C 7.9 °C 1025.6 hPa Calm     66 % 0.0 mm 18.0 W/m2 BKN
18:16 14.1 °C 8.1 °C 1026.0 hPa East 5.6 km/h 5.6 km/h 67 % 0.0 mm 12.0 W/m2 BKN
18:21 13.9 °C 7.9 °C 1026.0 hPa Calm     67 % 0.0 mm 11.0 W/m2 BKN
18:26 13.8 °C 8.0 °C 1026.0 hPa Calm     68 % 0.0 mm 7.0 W/m2 BKN
18:31 13.8 °C 8.2 °C 1026.0 hPa Calm     69 % 0.0 mm 0.0 W/m2 OVC
18:36 13.7 °C 8.1 °C 1026.3 hPa Calm     69 % 0.0 mm 0.0 W/m2 OVC
18:41 13.6 °C 8.2 °C 1026.3 hPa Calm     70 % 0.0 mm 0.0 W/m2 OVC
18:46 13.4 °C 8.2 °C 1026.3 hPa Calm     71 % 0.0 mm 0.0 W/m2 CLR
18:51 13.3 °C 8.3 °C 1026.3 hPa Calm     72 % 0.0 mm 0.0 W/m2 CLR
18:56 13.2 °C 8.2 °C 1026.3 hPa Calm     72 % 0.0 mm 0.0 W/m2 CLR
19:02 13.1 °C 8.3 °C 1026.6 hPa Calm     73 % 0.0 mm 0.0 W/m2 CLR
19:07 13.0 °C 8.3 °C 1026.6 hPa Calm     73 % 0.0 mm 0.0 W/m2 CLR
19:11 12.9 °C 8.4 °C 1026.6 hPa Calm     74 % 0.0 mm 0.0 W/m2 CLR
19:17 12.7 °C 8.3 °C 1026.6 hPa Calm     75 % 0.0 mm 0.0 W/m2 CLR
19:22 12.4 °C 8.3 °C 1027.0 hPa Calm     76 % 0.0 mm 0.0 W/m2 CLR
19:27 12.3 °C 8.2 °C 1027.0 hPa Calm     76 % 0.0 mm 0.0 W/m2 CLR
19:32 12.1 °C 8.2 °C 1027.0 hPa Calm     77 % 0.0 mm 0.0 W/m2 CLR
19:37 11.9 °C 8.2 °C 1027.0 hPa Calm     78 % 0.0 mm 0.0 W/m2 CLR
19:42 11.7 °C 8.2 °C 1027.0 hPa Calm     79 % 0.0 mm 0.0 W/m2 CLR
19:47 11.4 °C 8.1 °C 1027.0 hPa Calm     80 % 0.0 mm 0.0 W/m2 CLR
19:52 11.2 °C 7.9 °C 1027.0 hPa Calm     80 % 0.0 mm 0.0 W/m2 CLR
19:57 11.0 °C 7.9 °C 1027.3 hPa Calm     81 % 0.0 mm 0.0 W/m2 CLR
20:02 10.8 °C 7.8 °C 1027.3 hPa Calm     82 % 0.0 mm 0.0 W/m2 CLR
20:07 10.4 °C 7.7 °C 1027.3 hPa Calm     83 % 0.0 mm 0.0 W/m2 CLR
20:12 10.1 °C 7.5 °C 1027.3 hPa Calm     84 % 0.0 mm 0.0 W/m2 CLR
20:17 9.8 °C 7.4 °C 1027.7 hPa Calm     85 % 0.0 mm 0.0 W/m2 CLR
20:22 9.6 °C 7.2 °C 1027.7 hPa Calm     85 % 0.0 mm 0.0 W/m2 CLR
20:27 9.3 °C 7.1 °C 1027.7 hPa Calm     86 % 0.0 mm 0.0 W/m2 CLR
20:32 9.2 °C 7.0 °C 1027.7 hPa Calm     86 % 0.0 mm 0.0 W/m2 CLR
20:37 9.1 °C 6.9 °C 1027.7 hPa Calm     86 % 0.0 mm 0.0 W/m2 CLR
20:42 9.0 °C 6.9 °C 1027.7 hPa Calm     87 % 0.0 mm 0.0 W/m2 CLR
20:47 8.9 °C 6.8 °C 1027.7 hPa Calm     87 % 0.0 mm 0.0 W/m2 CLR
20:52 8.7 °C 6.7 °C 1028.0 hPa Calm     87 % 0.0 mm 0.0 W/m2 CLR
20:57 8.6 °C 6.5 °C 1028.0 hPa Calm     87 % 0.0 mm 0.0 W/m2 CLR
21:02 8.3 °C 6.4 °C 1028.0 hPa Calm     88 % 0.0 mm 0.0 W/m2 CLR
21:07 8.1 °C 6.2 °C 1028.0 hPa Calm     88 % 0.0 mm 0.0 W/m2 CLR
21:12 8.1 °C 6.3 °C 1028.3 hPa Calm     89 % 0.0 mm 0.0 W/m2 CLR
21:17 8.1 °C 6.6 °C 1028.3 hPa Calm     90 % 0.0 mm 0.0 W/m2 CLR
21:22 7.9 °C 6.2 °C 1028.3 hPa Calm     89 % 0.0 mm 0.0 W/m2 CLR
21:27 7.7 °C 6.0 °C 1028.3 hPa Calm     89 % 0.0 mm 0.0 W/m2 CLR
21:32 7.5 °C 5.8 °C 1028.3 hPa Calm     89 % 0.0 mm 0.0 W/m2 CLR
21:37 7.3 °C 5.6 °C 1028.7 hPa Calm     89 % 0.0 mm 0.0 W/m2 CLR
21:42 7.2 °C 5.5 °C 1028.7 hPa Calm     89 % 0.0 mm 0.0 W/m2 CLR
21:47 7.1 °C 5.5 °C 1028.7 hPa Calm     90 % 0.0 mm 0.0 W/m2 CLR
21:52 7.0 °C 5.4 °C 1028.7 hPa Calm     90 % 0.0 mm 0.0 W/m2 CLR
21:57 6.8 °C 5.3 °C 1028.7 hPa Calm     90 % 0.0 mm 0.0 W/m2 CLR
22:02 6.7 °C 5.2 °C 1028.7 hPa Calm     90 % 0.0 mm 0.0 W/m2 CLR
22:07 6.6 °C 5.1 °C 1029.0 hPa Calm     90 % 0.0 mm 0.0 W/m2 CLR
22:12 6.4 °C 5.0 °C 1028.7 hPa Calm     91 % 0.0 mm 0.0 W/m2 CLR
22:17 6.4 °C 5.0 °C 1029.0 hPa Calm     91 % 0.0 mm 0.0 W/m2 CLR
22:22 6.3 °C 4.9 °C 1029.0 hPa Calm     91 % 0.0 mm 0.0 W/m2 CLR
22:27 6.2 °C 4.8 °C 1029.0 hPa Calm     91 % 0.0 mm 0.0 W/m2 CLR
22:32 6.2 °C 5.0 °C 1029.0 hPa Calm     92 % 0.0 mm 0.0 W/m2 CLR
22:37 6.1 °C 4.8 °C 1029.0 hPa Calm     91 % 0.0 mm 0.0 W/m2 CLR
22:42 6.0 °C 4.7 °C 1029.0 hPa Calm     91 % 0.0 mm 0.0 W/m2 CLR
22:47 5.8 °C 4.5 °C 1029.3 hPa Calm     91 % 0.0 mm 0.0 W/m2 CLR
22:52 5.8 °C 4.4 °C 1029.3 hPa Calm     91 % 0.0 mm 0.0 W/m2 CLR
22:57 5.7 °C 4.4 °C 1029.3 hPa Calm     91 % 0.0 mm 0.0 W/m2 CLR
23:02 5.6 °C 4.4 °C 1029.3 hPa Calm     92 % 0.0 mm 0.0 W/m2 CLR
23:07 5.6 °C 4.3 °C 1029.3 hPa Calm     92 % 0.0 mm 0.0 W/m2 CLR
23:12 5.5 °C 4.3 °C 1029.3 hPa Calm     92 % 0.0 mm 0.0 W/m2 CLR
23:17 5.4 °C 4.1 °C 1029.3 hPa Calm     91 % 0.0 mm 0.0 W/m2 CLR
23:22 5.3 °C 4.1 °C 1029.3 hPa Calm     92 % 0.0 mm 0.0 W/m2 CLR
23:27 5.3 °C 4.1 °C 1029.3 hPa Calm     92 % 0.0 mm 0.0 W/m2 CLR
23:32 5.3 °C 4.1 °C 1029.3 hPa Calm     92 % 0.0 mm 0.0 W/m2 CLR
23:37 5.2 °C 4.0 °C 1029.3 hPa Calm     92 % 0.0 mm 0.0 W/m2 CLR
23:42 5.1 °C 3.9 °C 1029.7 hPa Calm     92 % 0.0 mm 0.0 W/m2 CLR
23:47 4.9 °C 3.7 °C 1029.7 hPa Calm     92 % 0.0 mm 0.0 W/m2 CLR
23:52 4.8 °C 3.6 °C 1029.7 hPa Calm     92 % 0.0 mm 0.0 W/m2 CLR
23:57 4.7 °C 3.6 °C 1029.7 hPa Calm     92 % 0.0 mm 0.0 W/m2 CLR
Lo Temps de Massalio
Compliments of Weather Underground - 1.25 mb